createdAt,value
2022-08-11T00:01:01.674Z,19.37
2022-08-11T00:03:43.608Z,19.34
2022-08-11T00:06:11.688Z,19.30
2022-08-11T00:08:39.359Z,19.28
2022-08-11T00:11:07.048Z,19.27
2022-08-11T00:13:34.931Z,19.25
2022-08-11T00:16:02.775Z,19.22
2022-08-11T00:18:30.434Z,19.15
2022-08-11T00:20:58.353Z,19.06
2022-08-11T00:23:26.329Z,18.95
2022-08-11T00:25:54.104Z,18.89
2022-08-11T00:28:21.728Z,18.82
2022-08-11T00:30:49.515Z,18.79
2022-08-11T00:33:17.214Z,18.77
2022-08-11T00:35:50.908Z,18.73
2022-08-11T00:38:25.287Z,18.71
2022-08-11T00:40:52.942Z,18.68
2022-08-11T00:43:21.117Z,18.66
2022-08-11T00:45:48.977Z,18.64
2022-08-11T00:48:16.647Z,18.58
2022-08-11T00:50:44.415Z,18.49
2022-08-11T00:53:12.353Z,18.42
2022-08-11T00:55:40.658Z,18.35
2022-08-11T00:58:08.337Z,18.27
2022-08-11T01:00:36.097Z,18.24
2022-08-11T01:03:04.153Z,18.20
2022-08-11T01:05:31.794Z,18.16
2022-08-11T01:08:02.819Z,18.12
2022-08-11T01:10:31.097Z,18.08
2022-08-11T01:12:59.002Z,18.04
2022-08-11T01:15:26.762Z,18.00
2022-08-11T01:17:54.436Z,17.96
2022-08-11T01:20:44.889Z,17.93
2022-08-11T01:23:12.579Z,17.89
2022-08-11T01:25:56.903Z,17.84
2022-08-11T01:28:24.983Z,17.81
2022-08-11T01:30:54.330Z,17.79
2022-08-11T01:33:22.577Z,17.76
2022-08-11T01:35:50.256Z,17.75
2022-08-11T01:38:17.934Z,17.75
2022-08-11T01:40:45.612Z,17.73
2022-08-11T01:43:30.823Z,17.70
2022-08-11T01:45:58.590Z,17.67
2022-08-11T01:48:26.447Z,17.63
2022-08-11T01:50:54.109Z,17.60
2022-08-11T01:53:21.764Z,17.56
2022-08-11T01:55:49.395Z,17.52
2022-08-11T01:58:17.120Z,17.49
2022-08-11T02:00:45.134Z,17.46
2022-08-11T02:03:12.853Z,17.42
2022-08-11T02:05:40.493Z,17.42
2022-08-11T02:08:08.250Z,17.40
2022-08-11T02:10:57.122Z,17.38
2022-08-11T02:13:35.700Z,17.35
2022-08-11T02:16:04.840Z,17.30
2022-08-11T02:18:52.469Z,17.27
2022-08-11T02:21:37.711Z,17.23
2022-08-11T02:24:07.993Z,17.17
2022-08-11T02:26:35.768Z,17.13
2022-08-11T02:29:03.456Z,17.10
2022-08-11T02:32:14.750Z,17.08
2022-08-11T02:34:37.392Z,17.04
2022-08-11T02:37:05.353Z,16.99
2022-08-11T02:39:33.028Z,16.94
2022-08-11T02:42:35.255Z,16.91
2022-08-11T02:45:04.054Z,16.86
2022-08-11T02:47:31.629Z,16.83
2022-08-11T02:50:00.072Z,16.79
2022-08-11T02:52:34.763Z,16.74
2022-08-11T02:55:02.857Z,16.68
2022-08-11T02:57:30.487Z,16.65
2022-08-11T02:59:58.208Z,16.62
2022-08-11T03:02:28.002Z,16.61
2022-08-11T03:04:55.892Z,16.59
2022-08-11T03:07:28.069Z,16.57
2022-08-11T03:09:57.030Z,16.55
2022-08-11T03:12:41.910Z,16.56
2022-08-11T03:15:27.126Z,16.57
2022-08-11T03:17:54.765Z,16.60
2022-08-11T03:20:22.834Z,16.60
2022-08-11T03:22:50.543Z,16.58
2022-08-11T03:25:18.549Z,16.57
2022-08-11T03:27:46.151Z,16.54
2022-08-11T03:30:13.739Z,16.53
2022-08-11T03:32:41.476Z,16.49
2022-08-11T03:35:08.094Z,16.45
2022-08-11T03:37:52.175Z,16.41
2022-08-11T03:40:40.104Z,16.37
2022-08-11T03:43:07.876Z,16.31
2022-08-11T03:45:41.052Z,16.26
2022-08-11T03:48:08.953Z,16.21
2022-08-11T03:50:36.564Z,16.17
2022-08-11T03:53:04.289Z,16.12
2022-08-11T03:55:32.804Z,16.08
2022-08-11T03:58:00.407Z,16.03
2022-08-11T04:00:28.017Z,16.00
2022-08-11T04:02:55.714Z,15.95
2022-08-11T04:05:24.903Z,15.91
2022-08-11T04:07:52.915Z,15.90
2022-08-11T04:10:20.555Z,15.88
2022-08-11T04:12:48.215Z,15.87
2022-08-11T04:15:29.911Z,15.88
2022-08-11T04:17:57.982Z,15.89
2022-08-11T04:20:25.751Z,15.92
2022-08-11T04:22:54.367Z,15.92
2022-08-11T04:25:22.556Z,15.91
2022-08-11T04:27:50.233Z,15.91
2022-08-11T04:30:18.053Z,15.93
2022-08-11T04:32:47.334Z,15.97
2022-08-11T04:35:15.418Z,16.00
2022-08-11T04:37:43.101Z,16.03
2022-08-11T04:40:11.774Z,16.06
2022-08-11T04:42:57.376Z,16.08
2022-08-11T04:45:25.036Z,16.11
2022-08-11T04:48:09.942Z,16.20
2022-08-11T04:51:08.781Z,16.24
2022-08-11T04:54:00.291Z,16.23
2022-08-11T04:56:45.565Z,16.20
2022-08-11T04:59:30.621Z,16.20
2022-08-11T05:01:58.409Z,16.24
2022-08-11T05:04:43.570Z,16.31
2022-08-11T05:07:11.264Z,16.38
2022-08-11T05:09:38.955Z,16.45
2022-08-11T05:12:06.671Z,16.57
2022-08-11T05:14:52.037Z,16.73
2022-08-11T05:17:37.109Z,16.92
2022-08-11T05:20:21.998Z,17.07
2022-08-11T05:23:07.060Z,17.22
2022-08-11T05:26:44.926Z,17.36
2022-08-11T05:28:57.558Z,17.50
2022-08-11T05:31:42.662Z,17.63
2022-08-11T05:34:29.467Z,17.78
2022-08-11T05:37:17.167Z,17.89
2022-08-11T05:40:02.878Z,18.01
2022-08-11T05:42:48.174Z,18.15
2022-08-11T05:45:58.146Z,18.30
2022-08-11T05:48:38.633Z,18.42
2022-08-11T05:51:30.251Z,18.52
2022-08-11T05:54:28.748Z,18.61
2022-08-11T05:56:57.270Z,18.67
2022-08-11T05:59:25.828Z,18.76
2022-08-11T06:01:53.622Z,18.84
2022-08-11T06:04:21.406Z,18.95
2022-08-11T06:06:51.116Z,19.06
2022-08-11T06:09:18.762Z,19.19
2022-08-11T06:11:46.484Z,19.35
2022-08-11T06:14:15.786Z,19.55
2022-08-11T06:16:43.835Z,19.78
2022-08-11T06:19:11.682Z,20.00
2022-08-11T06:21:39.265Z,20.21
2022-08-11T06:24:07.969Z,20.40
2022-08-11T06:26:49.580Z,20.57
2022-08-11T06:29:23.326Z,20.77
2022-08-11T06:32:06.126Z,20.95
2022-08-11T06:34:34.290Z,21.10
2022-08-11T06:37:02.366Z,21.26
2022-08-11T06:39:30.195Z,21.46
2022-08-11T06:41:57.866Z,21.63
2022-08-11T06:44:25.877Z,21.80
2022-08-11T06:46:54.804Z,21.96
2022-08-11T06:49:40.197Z,22.14
2022-08-11T06:52:34.730Z,22.32
2022-08-11T06:54:57.388Z,22.49
2022-08-11T06:57:45.236Z,22.63
2022-08-11T07:00:33.142Z,22.80
2022-08-11T07:03:02.328Z,22.96
2022-08-11T07:05:30.279Z,23.10
2022-08-11T07:08:33.277Z,23.20
2022-08-11T07:11:20.232Z,23.35
2022-08-11T07:14:05.568Z,23.51
2022-08-11T07:16:34.866Z,23.66
2022-08-11T07:19:20.274Z,23.80
2022-08-11T07:22:05.590Z,23.97
2022-08-11T07:25:01.483Z,24.13
2022-08-11T07:27:48.375Z,24.30
2022-08-11T07:30:16.093Z,24.46
2022-08-11T07:32:43.694Z,24.60
2022-08-11T07:35:13.463Z,24.75
2022-08-11T07:37:41.541Z,24.90
2022-08-11T07:40:09.256Z,25.06
2022-08-11T07:42:37.464Z,25.22
2022-08-11T07:45:28.055Z,25.36
2022-08-11T07:48:13.032Z,25.49
2022-08-11T07:50:58.062Z,25.65
2022-08-11T07:53:26.207Z,25.80
2022-08-11T07:55:53.855Z,25.91
2022-08-11T07:58:45.185Z,26.02
2022-08-11T08:01:37.400Z,26.13
2022-08-11T08:04:22.675Z,26.24
2022-08-11T08:07:07.936Z,26.37
2022-08-11T08:09:52.947Z,26.50
2022-08-11T08:12:38.474Z,26.64
2022-08-11T08:15:23.736Z,26.76
2022-08-11T08:18:09.348Z,26.89
2022-08-11T08:20:45.557Z,27.03
2022-08-11T08:23:13.244Z,27.15
2022-08-11T08:25:41.147Z,27.27
2022-08-11T08:28:08.830Z,27.42
2022-08-11T08:30:47.687Z,27.56
2022-08-11T08:33:15.717Z,27.69
2022-08-11T08:35:54.515Z,27.83
2022-08-11T08:38:23.919Z,27.99
2022-08-11T08:40:51.848Z,28.13
2022-08-11T08:43:19.744Z,28.25
2022-08-11T08:45:47.424Z,28.36
2022-08-11T08:48:15.226Z,28.44
2022-08-11T08:51:00.152Z,28.49
2022-08-11T08:53:32.970Z,28.59
2022-08-11T08:56:00.649Z,28.69
2022-08-11T08:58:28.368Z,28.82
2022-08-11T09:00:56.115Z,28.97
2022-08-11T09:04:04.787Z,29.13
2022-08-11T09:06:12.670Z,29.28
2022-08-11T09:08:41.084Z,29.39
2022-08-11T09:11:26.283Z,29.46
2022-08-11T09:14:05.059Z,29.56
2022-08-11T09:16:35.172Z,29.71
2022-08-11T09:19:03.264Z,29.80
2022-08-11T09:21:48.046Z,29.87
2022-08-11T09:24:34.853Z,29.97
2022-08-11T09:27:04.184Z,30.07
2022-08-11T09:29:31.848Z,30.14
2022-08-11T09:31:59.492Z,30.25
2022-08-11T09:34:27.677Z,30.29
2022-08-11T09:37:12.794Z,30.38
2022-08-11T09:39:58.159Z,30.52
2022-08-11T09:42:46.647Z,30.71
2022-08-11T09:45:13.673Z,30.96
2022-08-11T09:47:41.741Z,31.29
2022-08-11T09:50:09.537Z,31.69
2022-08-11T09:52:37.546Z,32.20
2022-08-11T09:55:06.415Z,32.68
2022-08-11T09:57:51.738Z,33.13
2022-08-11T10:00:21.111Z,33.58
2022-08-11T10:02:48.799Z,34.02
2022-08-11T10:05:39.599Z,34.46
2022-08-11T10:08:07.350Z,34.89
2022-08-11T10:10:35.407Z,35.32
2022-08-11T10:13:04.373Z,35.74
2022-08-11T10:15:38.673Z,36.02
2022-08-11T10:18:23.722Z,36.19
2022-08-11T10:20:51.672Z,36.30
2022-08-11T10:24:00.436Z,36.42
2022-08-11T10:26:42.830Z,36.59
2022-08-11T10:29:24.600Z,36.80
2022-08-11T10:32:17.800Z,36.94
2022-08-11T10:34:51.221Z,37.33
2022-08-11T10:38:08.748Z,37.78
2022-08-11T10:40:15.878Z,37.98
2022-08-11T10:43:01.483Z,38.09
2022-08-11T10:45:47.129Z,38.16
2022-08-11T10:48:15.598Z,38.32
2022-08-11T10:51:00.947Z,38.54
2022-08-11T10:53:45.792Z,38.73
2022-08-11T10:56:31.179Z,39.03
2022-08-11T10:59:03.980Z,39.45
2022-08-11T11:01:32.032Z,39.83
2022-08-11T11:03:59.840Z,40.14
2022-08-11T11:06:29.822Z,40.39
2022-08-11T11:09:03.697Z,40.55
2022-08-11T11:11:46.162Z,40.66
2022-08-11T11:14:31.488Z,40.77
2022-08-11T11:17:19.941Z,40.85
2022-08-11T11:19:47.634Z,40.90
2022-08-11T11:22:32.960Z,41.03
2022-08-11T11:25:00.719Z,41.11
2022-08-11T11:27:28.467Z,41.24
2022-08-11T11:29:56.441Z,41.40
2022-08-11T11:32:24.159Z,41.58
2022-08-11T11:34:53.997Z,41.72
2022-08-11T11:37:22.057Z,41.82
2022-08-11T11:39:49.917Z,41.88
2022-08-11T11:42:17.705Z,41.91
2022-08-11T11:44:45.889Z,42.11
2022-08-11T11:47:13.521Z,42.33
2022-08-11T11:49:41.219Z,42.58
2022-08-11T11:52:09.192Z,42.67
2022-08-11T11:54:37.218Z,42.79
2022-08-11T11:57:30.632Z,42.94
2022-08-11T12:00:16.136Z,42.95
2022-08-11T12:02:44.280Z,43.23
2022-08-11T12:05:12.039Z,43.47
2022-08-11T12:08:05.132Z,43.69
2022-08-11T12:10:38.375Z,43.82
2022-08-11T12:13:23.660Z,43.76
2022-08-11T12:16:32.824Z,43.89
2022-08-11T12:18:39.049Z,43.83
2022-08-11T12:21:06.702Z,43.82
2022-08-11T12:23:51.876Z,43.87
2022-08-11T12:26:36.976Z,43.90
2022-08-11T12:29:05.314Z,43.92
2022-08-11T12:31:32.943Z,43.85
2022-08-11T12:34:00.801Z,43.69
2022-08-11T12:36:28.516Z,43.64
2022-08-11T12:38:56.615Z,43.67
2022-08-11T12:41:42.261Z,43.66
2022-08-11T12:44:27.374Z,43.51
2022-08-11T12:46:55.120Z,43.27
2022-08-11T12:49:51.742Z,43.04
2022-08-11T12:52:19.481Z,42.61
2022-08-11T12:54:47.253Z,42.28
2022-08-11T12:57:36.836Z,41.99
2022-08-11T13:00:22.780Z,41.60
2022-08-11T13:03:08.127Z,41.22
2022-08-11T13:05:44.341Z,40.99
2022-08-11T13:08:14.051Z,40.72
2022-08-11T13:10:59.707Z,40.24
2022-08-11T13:13:54.781Z,39.65
2022-08-11T13:16:15.751Z,39.16
2022-08-11T13:18:43.736Z,38.75
2022-08-11T13:21:11.452Z,38.36
2022-08-11T13:23:59.625Z,38.08
2022-08-11T13:26:43.504Z,37.90
2022-08-11T13:29:16.587Z,37.62
2022-08-11T13:31:44.325Z,37.50
2022-08-11T13:34:12.117Z,37.45
2022-08-11T13:36:39.957Z,37.39
2022-08-11T13:39:08.199Z,37.28
2022-08-11T13:41:44.226Z,37.19
2022-08-11T13:44:12.548Z,37.09
2022-08-11T13:46:44.388Z,37.11
2022-08-11T13:49:12.252Z,37.18
2022-08-11T13:51:40.236Z,37.31
2022-08-11T13:54:09.076Z,37.47
2022-08-11T13:56:36.932Z,37.65
2022-08-11T13:59:04.616Z,37.75
2022-08-11T14:02:22.681Z,37.79
2022-08-11T14:04:28.942Z,37.69
2022-08-11T14:07:00.300Z,37.61
2022-08-11T14:09:28.345Z,37.44
2022-08-11T14:12:22.124Z,37.30
2022-08-11T14:14:51.743Z,37.11
2022-08-11T14:17:48.437Z,36.91
2022-08-11T14:20:37.833Z,36.80
2022-08-11T14:22:53.828Z,36.72
2022-08-11T14:25:21.541Z,36.61
2022-08-11T14:28:29.786Z,36.61
2022-08-11T14:31:01.141Z,36.69
2022-08-11T14:33:58.825Z,36.85
2022-08-11T14:36:17.440Z,36.94
2022-08-11T14:38:45.171Z,37.00
2022-08-11T14:41:30.475Z,37.10
2022-08-11T14:44:15.806Z,37.27
2022-08-11T14:47:00.795Z,37.16
2022-08-11T14:49:28.599Z,37.25
2022-08-11T14:51:57.285Z,37.41
2022-08-11T14:54:38.780Z,37.60
2022-08-11T14:57:06.476Z,37.86
2022-08-11T14:59:34.380Z,37.91
2022-08-11T15:02:19.522Z,37.95
2022-08-11T15:04:47.138Z,37.93
2022-08-11T15:07:16.995Z,38.03
2022-08-11T15:10:11.584Z,38.35
2022-08-11T15:12:33.716Z,38.93
2022-08-11T15:15:27.411Z,39.47
2022-08-11T15:17:55.103Z,39.83
2022-08-11T15:20:40.040Z,40.11
2022-08-11T15:23:25.283Z,40.20
2022-08-11T15:25:53.052Z,39.89
2022-08-11T15:28:38.446Z,39.68
2022-08-11T15:31:23.789Z,39.58
2022-08-11T15:34:08.722Z,39.48
2022-08-11T15:36:54.181Z,39.26
2022-08-11T15:39:23.212Z,39.19
2022-08-11T15:42:08.364Z,39.06
2022-08-11T15:45:03.251Z,38.91
2022-08-11T15:47:31.459Z,38.91
2022-08-11T15:50:12.476Z,39.07
2022-08-11T15:52:41.499Z,39.37
2022-08-11T15:55:09.231Z,39.53
2022-08-11T15:57:54.419Z,39.61
2022-08-11T16:00:39.672Z,39.78
2022-08-11T16:03:24.720Z,39.91
2022-08-11T16:06:13.423Z,39.93
2022-08-11T16:08:41.145Z,39.87
2022-08-11T16:11:09.264Z,39.97
2022-08-11T16:13:54.932Z,40.04
2022-08-11T16:16:22.642Z,40.14
2022-08-11T16:18:51.706Z,40.31
2022-08-11T16:21:34.129Z,40.52
2022-08-11T16:24:03.886Z,40.58
2022-08-11T16:27:08.004Z,40.63
2022-08-11T16:29:19.413Z,40.58
2022-08-11T16:32:07.548Z,40.52
2022-08-11T16:34:52.633Z,40.02
2022-08-11T16:37:37.846Z,38.62
2022-08-11T16:40:05.870Z,37.19
2022-08-11T16:43:00.163Z,36.08
2022-08-11T16:45:55.691Z,35.03
2022-08-11T16:48:36.520Z,34.32
2022-08-11T16:51:05.712Z,33.78
2022-08-11T16:54:00.355Z,33.34
2022-08-11T16:56:21.134Z,32.90
2022-08-11T16:59:06.177Z,32.58
2022-08-11T17:01:34.139Z,32.26
2022-08-11T17:04:19.470Z,32.01
2022-08-11T17:07:04.008Z,31.77
2022-08-11T17:10:39.051Z,31.51
2022-08-11T17:13:11.824Z,31.29
2022-08-11T17:15:57.478Z,31.11
2022-08-11T17:18:38.932Z,30.95
2022-08-11T17:21:06.827Z,30.82
2022-08-11T17:23:50.106Z,30.72
2022-08-11T17:26:18.218Z,30.62
2022-08-11T17:28:45.884Z,30.52
2022-08-11T17:31:30.845Z,30.44
2022-08-11T17:34:15.967Z,30.33
2022-08-11T17:36:45.765Z,30.26
2022-08-11T17:39:14.056Z,30.18
2022-08-11T17:41:59.337Z,30.11
2022-08-11T17:44:44.405Z,30.04
2022-08-11T17:47:29.392Z,29.95
2022-08-11T17:49:57.085Z,29.88
2022-08-11T17:53:02.563Z,29.79
2022-08-11T17:55:51.550Z,29.71
2022-08-11T17:58:38.589Z,29.64
2022-08-11T18:01:09.269Z,29.55
2022-08-11T18:03:39.723Z,29.49
2022-08-11T18:06:07.901Z,29.42
2022-08-11T18:08:58.054Z,29.36
2022-08-11T18:12:09.892Z,29.27
2022-08-11T18:14:48.339Z,29.18
2022-08-11T18:17:33.405Z,29.10
2022-08-11T18:20:18.468Z,29.02
2022-08-11T18:23:03.562Z,28.95
2022-08-11T18:25:48.820Z,28.88
2022-08-11T18:28:33.773Z,28.79
2022-08-11T18:31:19.051Z,28.69
2022-08-11T18:34:07.395Z,28.61
2022-08-11T18:36:53.708Z,28.52
2022-08-11T18:39:38.754Z,28.41
2022-08-11T18:42:29.658Z,28.33
2022-08-11T18:45:15.261Z,28.23
2022-08-11T18:48:00.278Z,28.12
2022-08-11T18:50:47.352Z,28.02
2022-08-11T18:53:46.156Z,27.93
2022-08-11T18:56:31.529Z,27.80
2022-08-11T18:59:16.604Z,27.72
2022-08-11T19:02:01.703Z,27.60
2022-08-11T19:04:47.019Z,27.47
2022-08-11T19:07:32.052Z,27.33
2022-08-11T19:10:16.968Z,27.20
2022-08-11T19:13:02.355Z,27.06
2022-08-11T19:15:47.319Z,26.92
2022-08-11T19:18:32.470Z,26.80
2022-08-11T19:21:17.426Z,26.67
2022-08-11T19:24:02.456Z,26.55
2022-08-11T19:26:47.832Z,26.44
2022-08-11T19:30:11.069Z,26.32
2022-08-11T19:32:40.649Z,26.20
2022-08-11T19:35:25.944Z,26.10
2022-08-11T19:38:10.849Z,25.99
2022-08-11T19:40:55.954Z,25.90
2022-08-11T19:43:41.135Z,25.80
2022-08-11T19:46:26.342Z,25.70
2022-08-11T19:49:11.470Z,25.63
2022-08-11T19:51:56.539Z,25.52
2022-08-11T19:54:41.830Z,25.43
2022-08-11T19:57:27.105Z,25.34
2022-08-11T20:00:12.101Z,25.23
2022-08-11T20:02:57.376Z,25.13
2022-08-11T20:05:55.684Z,25.03
2022-08-11T20:08:45.071Z,24.94
2022-08-11T20:11:30.434Z,24.84
2022-08-11T20:14:15.406Z,24.77
2022-08-11T20:17:00.338Z,24.67
2022-08-11T20:19:55.481Z,24.60
2022-08-11T20:22:41.895Z,24.51
2022-08-11T20:25:27.393Z,24.42
2022-08-11T20:28:12.361Z,24.35
2022-08-11T20:30:57.565Z,24.24
2022-08-11T20:33:42.942Z,24.13
2022-08-11T20:36:28.296Z,24.03
2022-08-11T20:39:13.397Z,23.92
2022-08-11T20:41:59.590Z,23.84
2022-08-11T20:44:44.629Z,23.75
2022-08-11T20:47:29.638Z,23.68
2022-08-11T20:50:20.301Z,23.59
2022-08-11T20:53:05.991Z,23.53
2022-08-11T20:55:53.759Z,23.45
2022-08-11T21:01:44.591Z,23.30
2022-08-11T21:04:31.001Z,23.24
2022-08-11T21:07:28.316Z,23.19
2022-08-11T21:10:22.774Z,23.13
2022-08-11T21:13:25.545Z,23.08
2022-08-11T21:16:22.726Z,23.00
2022-08-11T21:19:11.920Z,22.92
2022-08-11T21:21:57.161Z,22.86
2022-08-11T21:24:42.973Z,22.78
2022-08-11T21:27:32.469Z,22.71
2022-08-11T21:30:17.553Z,22.62
2022-08-11T21:33:02.940Z,22.51
2022-08-11T21:35:48.053Z,22.43
2022-08-11T21:38:33.115Z,22.35
2022-08-11T21:41:18.593Z,22.24
2022-08-11T21:44:03.731Z,22.10
2022-08-11T21:46:53.859Z,21.97
2022-08-11T21:49:39.008Z,21.87
2022-08-11T21:52:24.204Z,21.77
2022-08-11T21:55:09.592Z,21.69
2022-08-11T21:57:54.978Z,21.59
2022-08-11T22:00:39.950Z,21.50
2022-08-11T22:03:26.320Z,21.42
2022-08-11T22:06:12.033Z,21.36
2022-08-11T22:08:56.996Z,21.35
2022-08-11T22:11:42.521Z,21.35
2022-08-11T22:14:27.523Z,21.33
2022-08-11T22:17:12.511Z,21.32
2022-08-11T22:19:57.546Z,21.25
2022-08-11T22:22:49.088Z,21.16
2022-08-11T22:25:39.067Z,21.05
2022-08-11T22:28:29.486Z,20.96
2022-08-11T22:31:14.949Z,20.87
2022-08-11T22:34:00.247Z,20.78
2022-08-11T22:36:48.158Z,20.70
2022-08-11T22:39:35.677Z,20.62
2022-08-11T22:42:24.082Z,20.54
2022-08-11T22:45:18.357Z,20.44
2022-08-11T22:48:03.298Z,20.35
2022-08-11T22:50:48.249Z,20.28
2022-08-11T22:53:57.253Z,20.23
2022-08-11T22:56:38.679Z,20.16
2022-08-11T22:59:23.805Z,20.09
2022-08-11T23:02:09.318Z,20.01
2022-08-11T23:04:54.575Z,19.98
2022-08-11T23:07:49.545Z,19.94
2022-08-11T23:10:36.238Z,19.95
2022-08-11T23:13:22.120Z,19.96
2022-08-11T23:16:08.181Z,19.98
2022-08-11T23:18:53.150Z,19.98
2022-08-11T23:21:38.958Z,19.95
2022-08-11T23:24:24.747Z,19.94
2022-08-11T23:27:10.065Z,19.90
2022-08-11T23:29:55.078Z,19.90
2022-08-11T23:32:40.489Z,19.88
2022-08-11T23:35:37.767Z,19.87
2022-08-11T23:38:25.962Z,19.86
2022-08-11T23:41:11.402Z,19.82
2022-08-11T23:43:56.369Z,19.77
2022-08-11T23:46:41.605Z,19.70
2022-08-11T23:49:26.566Z,19.63
2022-08-11T23:52:11.734Z,19.55
2022-08-11T23:54:57.091Z,19.48
2022-08-11T23:57:47.806Z,19.43
